sensor_id;sensor_type;location;lat;lon;timestamp;temperature;humidity
43541;DHT22;29549;40.386;-3.710;2024-01-10T00:00:07;10.40;61.90
43541;DHT22;29549;40.386;-3.710;2024-01-10T00:00:18;10.40;61.90
43541;DHT22;29549;40.386;-3.710;2024-01-10T00:00:28;10.40;61.90
43541;DHT22;29549;40.386;-3.710;2024-01-10T00:00:39;10.40;61.80
43541;DHT22;29549;40.386;-3.710;2024-01-10T00:00:50;10.40;61.80
43541;DHT22;29549;40.386;-3.710;2024-01-10T00:01:01;10.40;61.80
43541;DHT22;29549;40.386;-3.710;2024-01-10T00:01:11;10.30;61.90
43541;DHT22;29549;40.386;-3.710;2024-01-10T00:01:22;10.40;61.90
43541;DHT22;29549;40.386;-3.710;2024-01-10T00:01:37;10.40;61.90
43541;DHT22;29549;40.386;-3.710;2024-01-10T00:01:47;10.40;62.00
43541;DHT22;29549;40.386;-3.710;2024-01-10T00:01:58;10.40;62.00
43541;DHT22;29549;40.386;-3.710;2024-01-10T00:02:09;10.40;62.10
43541;DHT22;29549;40.386;-3.710;2024-01-10T00:02:20;10.30;62.10
43541;DHT22;29549;40.386;-3.710;2024-01-10T00:02:30;10.40;62.20
43541;DHT22;29549;40.386;-3.710;2024-01-10T00:02:41;10.40;62.20
43541;DHT22;29549;40.386;-3.710;2024-01-10T00:02:52;10.40;62.20
43541;DHT22;29549;40.386;-3.710;2024-01-10T00:03:03;10.40;62.10
43541;DHT22;29549;40.386;-3.710;2024-01-10T00:03:13;10.30;62.10
43541;DHT22;29549;40.386;-3.710;2024-01-10T00:03:24;10.40;62.10
43541;DHT22;29549;40.386;-3.710;2024-01-10T00:03:35;10.40;62.10
43541;DHT22;29549;40.386;-3.710;2024-01-10T00:03:46;10.40;62.10
43541;DHT22;29549;40.386;-3.710;2024-01-10T00:03:56;10.40;62.10
43541;DHT22;29549;40.386;-3.710;2024-01-10T00:04:07;10.40;62.10
43541;DHT22;29549;40.386;-3.710;2024-01-10T00:04:18;10.40;62.10
43541;DHT22;29549;40.386;-3.710;2024-01-10T00:04:29;10.40;62.10
43541;DHT22;29549;40.386;-3.710;2024-01-10T00:04:39;10.40;62.10
43541;DHT22;29549;40.386;-3.710;2024-01-10T00:04:50;10.40;62.10
43541;DHT22;29549;40.386;-3.710;2024-01-10T00:05:01;10.40;62.10
43541;DHT22;29549;40.386;-3.710;2024-01-10T00:05:12;10.40;62.10
43541;DHT22;29549;40.386;-3.710;2024-01-10T00:05:22;10.40;62.10
43541;DHT22;29549;40.386;-3.710;2024-01-10T00:05:33;10.40;62.10
43541;DHT22;29549;40.386;-3.710;2024-01-10T00:05:44;10.40;62.10
43541;DHT22;29549;40.386;-3.710;2024-01-10T00:05:55;10.40;62.10
43541;DHT22;29549;40.386;-3.710;2024-01-10T00:06:05;10.40;62.10
43541;DHT22;29549;40.386;-3.710;2024-01-10T00:06:16;10.40;62.10
43541;DHT22;29549;40.386;-3.710;2024-01-10T00:06:27;10.40;62.10
43541;DHT22;29549;40.386;-3.710;2024-01-10T00:06:38;10.40;62.10
43541;DHT22;29549;40.386;-3.710;2024-01-10T00:06:48;10.40;62.10
43541;DHT22;29549;40.386;-3.710;2024-01-10T00:06:59;10.40;62.10
43541;DHT22;29549;40.386;-3.710;2024-01-10T00:07:10;10.30;62.10
43541;DHT22;29549;40.386;-3.710;2024-01-10T00:07:21;10.40;62.10
43541;DHT22;29549;40.386;-3.710;2024-01-10T00:07:31;10.40;62.10
43541;DHT22;29549;40.386;-3.710;2024-01-10T00:07:42;10.40;62.20
43541;DHT22;29549;40.386;-3.710;2024-01-10T00:07:53;10.40;62.20
43541;DHT22;29549;40.386;-3.710;2024-01-10T00:08:05;10.30;62.20
43541;DHT22;29549;40.386;-3.710;2024-01-10T00:08:17;10.40;62.30
43541;DHT22;29549;40.386;-3.710;2024-01-10T00:08:27;10.30;62.30
43541;DHT22;29549;40.386;-3.710;2024-01-10T00:08:38;10.30;62.30
43541;DHT22;29549;40.386;-3.710;2024-01-10T00:08:50;10.40;62.20
43541;DHT22;29549;40.386;-3.710;2024-01-10T00:09:00;10.40;62.20
43541;DHT22;29549;40.386;-3.710;2024-01-10T00:09:11;10.40;62.20
43541;DHT22;29549;40.386;-3.710;2024-01-10T00:09:22;10.40;62.20
43541;DHT22;29549;40.386;-3.710;2024-01-10T00:09:33;10.40;62.20
43541;DHT22;29549;40.386;-3.710;2024-01-10T00:09:44;10.40;62.30
43541;DHT22;29549;40.386;-3.710;2024-01-10T00:09:56;10.40;62.30
43541;DHT22;29549;40.386;-3.710;2024-01-10T00:10:08;10.40;62.30
43541;DHT22;29549;40.386;-3.710;2024-01-10T00:10:18;10.40;62.30
43541;DHT22;29549;40.386;-3.710;2024-01-10T00:10:29;10.40;62.30
43541;DHT22;29549;40.386;-3.710;2024-01-10T00:10:40;10.40;62.30
43541;DHT22;29549;40.386;-3.710;2024-01-10T00:10:52;10.40;62.30
43541;DHT22;29549;40.386;-3.710;2024-01-10T00:11:04;10.40;62.30
43541;DHT22;29549;40.386;-3.710;2024-01-10T00:11:15;10.40;62.40
43541;DHT22;29549;40.386;-3.710;2024-01-10T00:11:26;10.40;62.40
43541;DHT22;29549;40.386;-3.710;2024-01-10T00:11:37;10.40;62.40
43541;DHT22;29549;40.386;-3.710;2024-01-10T00:11:47;10.40;62.40
43541;DHT22;29549;40.386;-3.710;2024-01-10T00:11:58;10.40;62.40
43541;DHT22;29549;40.386;-3.710;2024-01-10T00:12:09;10.40;62.40
43541;DHT22;29549;40.386;-3.710;2024-01-10T00:12:20;10.40;62.30
43541;DHT22;29549;40.386;-3.710;2024-01-10T00:12:30;10.40;62.30
43541;DHT22;29549;40.386;-3.710;2024-01-10T00:12:46;10.40;62.30
43541;DHT22;29549;40.386;-3.710;2024-01-10T00:12:57;10.40;62.20
43541;DHT22;29549;40.386;-3.710;2024-01-10T00:13:07;10.40;62.20
43541;DHT22;29549;40.386;-3.710;2024-01-10T00:13:18;10.40;62.20
43541;DHT22;29549;40.386;-3.710;2024-01-10T00:13:31;10.40;62.20
43541;DHT22;29549;40.386;-3.710;2024-01-10T00:13:42;10.40;62.10
43541;DHT22;29549;40.386;-3.710;2024-01-10T00:13:53;10.40;62.10
43541;DHT22;29549;40.386;-3.710;2024-01-10T00:14:10;10.40;62.10
43541;DHT22;29549;40.386;-3.710;2024-01-10T00:14:21;10.40;62.10
43541;DHT22;29549;40.386;-3.710;2024-01-10T00:14:31;10.40;62.10
43541;DHT22;29549;40.386;-3.710;2024-01-10T00:14:42;10.40;62.10
43541;DHT22;29549;40.386;-3.710;2024-01-10T00:14:53;10.40;62.00
43541;DHT22;29549;40.386;-3.710;2024-01-10T00:15:04;10.40;62.00
43541;DHT22;29549;40.386;-3.710;2024-01-10T00:15:16;10.40;61.90
43541;DHT22;29549;40.386;-3.710;2024-01-10T00:15:27;10.40;61.90
43541;DHT22;29549;40.386;-3.710;2024-01-10T00:15:38;10.40;61.90
43541;DHT22;29549;40.386;-3.710;2024-01-10T00:15:48;10.40;61.90
43541;DHT22;29549;40.386;-3.710;2024-01-10T00:15:59;10.40;61.90
43541;DHT22;29549;40.386;-3.710;2024-01-10T00:16:14;10.40;61.90
43541;DHT22;29549;40.386;-3.710;2024-01-10T00:16:26;10.40;61.90
43541;DHT22;29549;40.386;-3.710;2024-01-10T00:16:37;10.40;61.80
43541;DHT22;29549;40.386;-3.710;2024-01-10T00:16:48;10.50;61.80
43541;DHT22;29549;40.386;-3.710;2024-01-10T00:16:58;10.50;61.80
43541;DHT22;29549;40.386;-3.710;2024-01-10T00:17:09;10.40;61.80
43541;DHT22;29549;40.386;-3.710;2024-01-10T00:17:20;10.40;61.80
43541;DHT22;29549;40.386;-3.710;2024-01-10T00:17:31;10.40;61.80
43541;DHT22;29549;40.386;-3.710;2024-01-10T00:17:42;10.50;61.80
43541;DHT22;29549;40.386;-3.710;2024-01-10T00:17:52;10.50;61.80
43541;DHT22;29549;40.386;-3.710;2024-01-10T00:18:03;10.40;61.70
43541;DHT22;29549;40.386;-3.710;2024-01-10T00:18:14;10.40;61.70
43541;DHT22;29549;40.386;-3.710;2024-01-10T00:18:25;10.50;61.70
43541;DHT22;29549;40.386;-3.710;2024-01-10T00:18:36;10.50;61.70
43541;DHT22;29549;40.386;-3.710;2024-01-10T00:18:46;10.50;61.70
43541;DHT22;29549;40.386;-3.710;2024-01-10T00:18:57;10.40;61.70
43541;DHT22;29549;40.386;-3.710;2024-01-10T00:19:08;10.50;61.70
43541;DHT22;29549;40.386;-3.710;2024-01-10T00:19:19;10.50;61.60
43541;DHT22;29549;40.386;-3.710;2024-01-10T00:19:30;10.50;61.60
43541;DHT22;29549;40.386;-3.710;2024-01-10T00:19:41;10.50;61.60
43541;DHT22;29549;40.386;-3.710;2024-01-10T00:19:52;10.50;61.60
43541;DHT22;29549;40.386;-3.710;2024-01-10T00:20:03;10.50;61.50
43541;DHT22;29549;40.386;-3.710;2024-01-10T00:20:13;10.50;61.40
43541;DHT22;29549;40.386;-3.710;2024-01-10T00:20:24;10.50;61.40
43541;DHT22;29549;40.386;-3.710;2024-01-10T00:20:35;10.50;61.40
43541;DHT22;29549;40.386;-3.710;2024-01-10T00:20:46;10.50;61.40
43541;DHT22;29549;40.386;-3.710;2024-01-10T00:20:58;10.50;61.40
43541;DHT22;29549;40.386;-3.710;2024-01-10T00:21:09;10.50;61.40
43541;DHT22;29549;40.386;-3.710;2024-01-10T00:21:20;10.50;61.40
43541;DHT22;29549;40.386;-3.710;2024-01-10T00:21:31;10.50;61.40
43541;DHT22;29549;40.386;-3.710;2024-01-10T00:21:42;10.50;61.40
43541;DHT22;29549;40.386;-3.710;2024-01-10T00:21:53;10.50;61.40
43541;DHT22;29549;40.386;-3.710;2024-01-10T00:22:03;10.50;61.40
43541;DHT22;29549;40.386;-3.710;2024-01-10T00:22:14;10.50;61.40
43541;DHT22;29549;40.386;-3.710;2024-01-10T00:22:25;10.50;61.40
43541;DHT22;29549;40.386;-3.710;2024-01-10T00:22:36;10.50;61.40
43541;DHT22;29549;40.386;-3.710;2024-01-10T00:22:46;10.50;61.30
43541;DHT22;29549;40.386;-3.710;2024-01-10T00:22:57;10.50;61.40
43541;DHT22;29549;40.386;-3.710;2024-01-10T00:23:08;10.50;61.40
43541;DHT22;29549;40.386;-3.710;2024-01-10T00:23:19;10.50;61.40
43541;DHT22;29549;40.386;-3.710;2024-01-10T00:23:30;10.50;61.50
43541;DHT22;29549;40.386;-3.710;2024-01-10T00:23:40;10.50;61.40
43541;DHT22;29549;40.386;-3.710;2024-01-10T00:23:51;10.50;61.50
43541;DHT22;29549;40.386;-3.710;2024-01-10T00:24:02;10.50;61.50
43541;DHT22;29549;40.386;-3.710;2024-01-10T00:24:13;10.50;61.40
43541;DHT22;29549;40.386;-3.710;2024-01-10T00:24:23;10.50;61.30
43541;DHT22;29549;40.386;-3.710;2024-01-10T00:24:34;10.50;61.30
43541;DHT22;29549;40.386;-3.710;2024-01-10T00:24:45;10.50;61.20
43541;DHT22;29549;40.386;-3.710;2024-01-10T00:24:56;10.50;61.20
43541;DHT22;29549;40.386;-3.710;2024-01-10T00:25:07;10.50;61.20
43541;DHT22;29549;40.386;-3.710;2024-01-10T00:25:18;10.50;61.20
43541;DHT22;29549;40.386;-3.710;2024-01-10T00:25:29;10.50;61.20
43541;DHT22;29549;40.386;-3.710;2024-01-10T00:25:39;10.50;61.30
43541;DHT22;29549;40.386;-3.710;2024-01-10T00:25:50;10.50;61.30
43541;DHT22;29549;40.386;-3.710;2024-01-10T00:26:01;10.50;61.30
43541;DHT22;29549;40.386;-3.710;2024-01-10T00:26:12;10.50;61.30
43541;DHT22;29549;40.386;-3.710;2024-01-10T00:26:22;10.50;61.30
43541;DHT22;29549;40.386;-3.710;2024-01-10T00:26:33;10.50;61.30
43541;DHT22;29549;40.386;-3.710;2024-01-10T00:26:44;10.60;61.30
43541;DHT22;29549;40.386;-3.710;2024-01-10T00:26:54;10.60;61.40
43541;DHT22;29549;40.386;-3.710;2024-01-10T00:27:05;10.60;61.40
43541;DHT22;29549;40.386;-3.710;2024-01-10T00:27:16;10.50;61.40
43541;DHT22;29549;40.386;-3.710;2024-01-10T00:27:27;10.60;61.40
43541;DHT22;29549;40.386;-3.710;2024-01-10T00:27:38;10.50;61.40
43541;DHT22;29549;40.386;-3.710;2024-01-10T00:27:49;10.60;61.40
43541;DHT22;29549;40.386;-3.710;2024-01-10T00:27:59;10.60;61.40
43541;DHT22;29549;40.386;-3.710;2024-01-10T00:28:10;10.60;61.30
43541;DHT22;29549;40.386;-3.710;2024-01-10T00:28:21;10.60;61.30
43541;DHT22;29549;40.386;-3.710;2024-01-10T00:28:32;10.60;61.30
43541;DHT22;29549;40.386;-3.710;2024-01-10T00:28:43;10.60;61.20
43541;DHT22;29549;40.386;-3.710;2024-01-10T00:28:56;10.60;61.20
43541;DHT22;29549;40.386;-3.710;2024-01-10T00:29:07;10.70;61.20
43541;DHT22;29549;40.386;-3.710;2024-01-10T00:29:18;10.60;61.20
43541;DHT22;29549;40.386;-3.710;2024-01-10T00:29:28;10.60;61.20
43541;DHT22;29549;40.386;-3.710;2024-01-10T00:29:39;10.60;61.20
43541;DHT22;29549;40.386;-3.710;2024-01-10T00:29:50;10.60;61.10
43541;DHT22;29549;40.386;-3.710;2024-01-10T00:30:02;10.60;61.00
43541;DHT22;29549;40.386;-3.710;2024-01-10T00:30:13;10.70;61.00
43541;DHT22;29549;40.386;-3.710;2024-01-10T00:30:25;10.70;61.00
43541;DHT22;29549;40.386;-3.710;2024-01-10T00:30:38;10.60;61.00
43541;DHT22;29549;40.386;-3.710;2024-01-10T00:30:48;10.70;61.00
43541;DHT22;29549;40.386;-3.710;2024-01-10T00:31:00;10.70;61.00
43541;DHT22;29549;40.386;-3.710;2024-01-10T00:31:10;10.70;61.00
43541;DHT22;29549;40.386;-3.710;2024-01-10T00:31:21;10.70;61.10
43541;DHT22;29549;40.386;-3.710;2024-01-10T00:31:32;10.60;61.10
43541;DHT22;29549;40.386;-3.710;2024-01-10T00:31:43;10.70;61.10
43541;DHT22;29549;40.386;-3.710;2024-01-10T00:31:53;10.60;61.10
43541;DHT22;29549;40.386;-3.710;2024-01-10T00:32:05;10.70;61.10
43541;DHT22;29549;40.386;-3.710;2024-01-10T00:32:15;10.60;61.10
43541;DHT22;29549;40.386;-3.710;2024-01-10T00:32:26;10.60;61.10
43541;DHT22;29549;40.386;-3.710;2024-01-10T00:32:37;10.60;61.10
43541;DHT22;29549;40.386;-3.710;2024-01-10T00:32:48;10.60;61.20
43541;DHT22;29549;40.386;-3.710;2024-01-10T00:32:58;10.60;61.20
43541;DHT22;29549;40.386;-3.710;2024-01-10T00:33:09;10.70;61.10
43541;DHT22;29549;40.386;-3.710;2024-01-10T00:33:20;10.60;61.10
43541;DHT22;29549;40.386;-3.710;2024-01-10T00:33:31;10.60;61.10
43541;DHT22;29549;40.386;-3.710;2024-01-10T00:33:41;10.70;61.10
43541;DHT22;29549;40.386;-3.710;2024-01-10T00:33:52;10.70;61.10
43541;DHT22;29549;40.386;-3.710;2024-01-10T00:34:03;10.60;61.10
43541;DHT22;29549;40.386;-3.710;2024-01-10T00:34:14;10.70;61.10
43541;DHT22;29549;40.386;-3.710;2024-01-10T00:34:24;10.70;61.10
43541;DHT22;29549;40.386;-3.710;2024-01-10T00:34:35;10.70;61.10
43541;DHT22;29549;40.386;-3.710;2024-01-10T00:34:46;10.60;61.10
43541;DHT22;29549;40.386;-3.710;2024-01-10T00:34:57;10.70;61.10
43541;DHT22;29549;40.386;-3.710;2024-01-10T00:35:07;10.60;61.10
43541;DHT22;29549;40.386;-3.710;2024-01-10T00:35:18;10.70;61.20
43541;DHT22;29549;40.386;-3.710;2024-01-10T00:35:30;10.60;61.20
43541;DHT22;29549;40.386;-3.710;2024-01-10T00:35:40;10.60;61.20
43541;DHT22;29549;40.386;-3.710;2024-01-10T00:35:51;10.70;61.20
43541;DHT22;29549;40.386;-3.710;2024-01-10T00:36:02;10.60;61.20
43541;DHT22;29549;40.386;-3.710;2024-01-10T00:36:13;10.60;61.10
43541;DHT22;29549;40.386;-3.710;2024-01-10T00:36:23;10.60;61.10
43541;DHT22;29549;40.386;-3.710;2024-01-10T00:36:34;10.60;61.10
43541;DHT22;29549;40.386;-3.710;2024-01-10T00:36:45;10.60;61.10
43541;DHT22;29549;40.386;-3.710;2024-01-10T00:36:56;10.60;61.10
43541;DHT22;29549;40.386;-3.710;2024-01-10T00:37:07;10.60;61.10
43541;DHT22;29549;40.386;-3.710;2024-01-10T00:37:18;10.60;61.10
43541;DHT22;29549;40.386;-3.710;2024-01-10T00:37:29;10.60;61.10
43541;DHT22;29549;40.386;-3.710;2024-01-10T00:37:39;10.60;61.10
43541;DHT22;29549;40.386;-3.710;2024-01-10T00:37:50;10.60;61.10
43541;DHT22;29549;40.386;-3.710;2024-01-10T00:38:01;10.60;61.10
43541;DHT22;29549;40.386;-3.710;2024-01-10T00:38:12;10.60;61.10
43541;DHT22;29549;40.386;-3.710;2024-01-10T00:38:23;10.60;61.10
43541;DHT22;29549;40.386;-3.710;2024-01-10T00:38:34;10.60;61.00
43541;DHT22;29549;40.386;-3.710;2024-01-10T00:38:45;10.60;61.00
43541;DHT22;29549;40.386;-3.710;2024-01-10T00:38:55;10.70;61.10
43541;DHT22;29549;40.386;-3.710;2024-01-10T00:39:06;10.60;61.00
43541;DHT22;29549;40.386;-3.710;2024-01-10T00:39:17;10.60;61.00
43541;DHT22;29549;40.386;-3.710;2024-01-10T00:39:28;10.70;61.00
43541;DHT22;29549;40.386;-3.710;2024-01-10T00:39:38;10.70;61.00
43541;DHT22;29549;40.386;-3.710;2024-01-10T00:39:50;10.60;61.00
43541;DHT22;29549;40.386;-3.710;2024-01-10T00:40:01;10.70;60.90
43541;DHT22;29549;40.386;-3.710;2024-01-10T00:40:12;10.70;60.90
43541;DHT22;29549;40.386;-3.710;2024-01-10T00:40:23;10.70;60.90
43541;DHT22;29549;40.386;-3.710;2024-01-10T00:40:34;10.60;60.80
43541;DHT22;29549;40.386;-3.710;2024-01-10T00:40:44;10.70;60.80
43541;DHT22;29549;40.386;-3.710;2024-01-10T00:40:55;10.70;60.80
43541;DHT22;29549;40.386;-3.710;2024-01-10T00:41:07;10.70;60.80
43541;DHT22;29549;40.386;-3.710;2024-01-10T00:41:18;10.70;60.80
43541;DHT22;29549;40.386;-3.710;2024-01-10T00:41:28;10.70;60.80
43541;DHT22;29549;40.386;-3.710;2024-01-10T00:41:39;10.70;60.70
43541;DHT22;29549;40.386;-3.710;2024-01-10T00:41:50;10.70;60.70
43541;DHT22;29549;40.386;-3.710;2024-01-10T00:42:01;10.70;60.70
43541;DHT22;29549;40.386;-3.710;2024-01-10T00:42:11;10.60;60.70
43541;DHT22;29549;40.386;-3.710;2024-01-10T00:42:22;10.70;60.70
43541;DHT22;29549;40.386;-3.710;2024-01-10T00:42:33;10.70;60.70
43541;DHT22;29549;40.386;-3.710;2024-01-10T00:42:44;10.60;60.70
43541;DHT22;29549;40.386;-3.710;2024-01-10T00:42:55;10.70;60.70
43541;DHT22;29549;40.386;-3.710;2024-01-10T00:43:05;10.70;60.70
43541;DHT22;29549;40.386;-3.710;2024-01-10T00:43:16;10.70;60.70
43541;DHT22;29549;40.386;-3.710;2024-01-10T00:43:27;10.60;60.70
43541;DHT22;29549;40.386;-3.710;2024-01-10T00:43:38;10.70;60.70
43541;DHT22;29549;40.386;-3.710;2024-01-10T00:43:48;10.70;60.70
43541;DHT22;29549;40.386;-3.710;2024-01-10T00:43:59;10.70;60.70
43541;DHT22;29549;40.386;-3.710;2024-01-10T00:44:10;10.70;60.70
43541;DHT22;29549;40.386;-3.710;2024-01-10T00:44:21;10.70;60.70
43541;DHT22;29549;40.386;-3.710;2024-01-10T00:44:31;10.70;60.70
43541;DHT22;29549;40.386;-3.710;2024-01-10T00:44:42;10.70;60.70
43541;DHT22;29549;40.386;-3.710;2024-01-10T00:44:53;10.70;60.70
43541;DHT22;29549;40.386;-3.710;2024-01-10T00:45:04;10.70;60.70
43541;DHT22;29549;40.386;-3.710;2024-01-10T00:45:16;10.70;60.70
43541;DHT22;29549;40.386;-3.710;2024-01-10T00:45:27;10.70;60.70
43541;DHT22;29549;40.386;-3.710;2024-01-10T00:45:38;10.70;60.60
43541;DHT22;29549;40.386;-3.710;2024-01-10T00:45:48;10.70;60.60
43541;DHT22;29549;40.386;-3.710;2024-01-10T00:45:59;10.70;60.70
43541;DHT22;29549;40.386;-3.710;2024-01-10T00:46:10;10.70;60.70
43541;DHT22;29549;40.386;-3.710;2024-01-10T00:46:21;10.70;60.70
43541;DHT22;29549;40.386;-3.710;2024-01-10T00:46:31;10.70;60.70
43541;DHT22;29549;40.386;-3.710;2024-01-10T00:46:42;10.70;60.70
43541;DHT22;29549;40.386;-3.710;2024-01-10T00:46:53;10.70;60.80
43541;DHT22;29549;40.386;-3.710;2024-01-10T00:47:04;10.70;60.80
43541;DHT22;29549;40.386;-3.710;2024-01-10T00:47:14;10.70;60.80
43541;DHT22;29549;40.386;-3.710;2024-01-10T00:47:25;10.70;60.80
43541;DHT22;29549;40.386;-3.710;2024-01-10T00:47:36;10.70;60.90
43541;DHT22;29549;40.386;-3.710;2024-01-10T00:47:49;10.70;60.90
43541;DHT22;29549;40.386;-3.710;2024-01-10T00:48:00;10.70;60.80
43541;DHT22;29549;40.386;-3.710;2024-01-10T00:48:10;10.70;60.80
43541;DHT22;29549;40.386;-3.710;2024-01-10T00:48:21;10.70;60.80
43541;DHT22;29549;40.386;-3.710;2024-01-10T00:48:32;10.70;60.80
43541;DHT22;29549;40.386;-3.710;2024-01-10T00:48:44;10.70;60.80
43541;DHT22;29549;40.386;-3.710;2024-01-10T00:48:55;10.70;60.80
43541;DHT22;29549;40.386;-3.710;2024-01-10T00:49:05;10.70;60.80
43541;DHT22;29549;40.386;-3.710;2024-01-10T00:49:16;10.70;60.80
43541;DHT22;29549;40.386;-3.710;2024-01-10T00:49:27;10.70;60.80
43541;DHT22;29549;40.386;-3.710;2024-01-10T00:49:38;10.70;60.90
43541;DHT22;29549;40.386;-3.710;2024-01-10T00:49:48;10.70;60.90
43541;DHT22;29549;40.386;-3.710;2024-01-10T00:49:59;10.70;60.90
43541;DHT22;29549;40.386;-3.710;2024-01-10T00:50:10;10.70;60.90
43541;DHT22;29549;40.386;-3.710;2024-01-10T00:50:21;10.70;60.90
43541;DHT22;29549;40.386;-3.710;2024-01-10T00:50:31;10.70;60.90
43541;DHT22;29549;40.386;-3.710;2024-01-10T00:50:42;10.70;60.90
43541;DHT22;29549;40.386;-3.710;2024-01-10T00:50:54;10.70;60.90
43541;DHT22;29549;40.386;-3.710;2024-01-10T00:51:05;10.70;60.90
43541;DHT22;29549;40.386;-3.710;2024-01-10T00:51:19;10.70;60.90
43541;DHT22;29549;40.386;-3.710;2024-01-10T00:51:29;10.70;60.90
43541;DHT22;29549;40.386;-3.710;2024-01-10T00:51:40;10.70;60.90
43541;DHT22;29549;40.386;-3.710;2024-01-10T00:51:51;10.70;60.90
43541;DHT22;29549;40.386;-3.710;2024-01-10T00:52:02;10.70;60.90
43541;DHT22;29549;40.386;-3.710;2024-01-10T00:52:12;10.70;60.90
43541;DHT22;29549;40.386;-3.710;2024-01-10T00:52:23;10.70;60.90
43541;DHT22;29549;40.386;-3.710;2024-01-10T00:52:34;10.70;60.90
43541;DHT22;29549;40.386;-3.710;2024-01-10T00:52:45;10.70;60.90
43541;DHT22;29549;40.386;-3.710;2024-01-10T00:52:56;10.70;60.80
43541;DHT22;29549;40.386;-3.710;2024-01-10T00:53:07;10.70;60.90
43541;DHT22;29549;40.386;-3.710;2024-01-10T00:53:17;10.70;60.80
43541;DHT22;29549;40.386;-3.710;2024-01-10T00:53:28;10.70;60.80
43541;DHT22;29549;40.386;-3.710;2024-01-10T00:53:39;10.70;60.70
43541;DHT22;29549;40.386;-3.710;2024-01-10T00:53:50;10.70;60.70
43541;DHT22;29549;40.386;-3.710;2024-01-10T00:54:00;10.70;60.60
43541;DHT22;29549;40.386;-3.710;2024-01-10T00:54:11;10.70;60.70
43541;DHT22;29549;40.386;-3.710;2024-01-10T00:54:22;10.70;60.70
43541;DHT22;29549;40.386;-3.710;2024-01-10T00:54:33;10.70;60.70
43541;DHT22;29549;40.386;-3.710;2024-01-10T00:54:43;10.70;60.70
43541;DHT22;29549;40.386;-3.710;2024-01-10T00:54:56;10.70;60.60
43541;DHT22;29549;40.386;-3.710;2024-01-10T00:55:07;10.70;60.60
43541;DHT22;29549;40.386;-3.710;2024-01-10T00:55:18;10.70;60.60
43541;DHT22;29549;40.386;-3.710;2024-01-10T00:55:29;10.70;60.60
43541;DHT22;29549;40.386;-3.710;2024-01-10T00:55:40;10.70;60.50
43541;DHT22;29549;40.386;-3.710;2024-01-10T00:55:50;10.70;60.60
43541;DHT22;29549;40.386;-3.710;2024-01-10T00:56:01;10.70;60.60
43541;DHT22;29549;40.386;-3.710;2024-01-10T00:56:12;10.70;60.60
43541;DHT22;29549;40.386;-3.710;2024-01-10T00:56:23;10.70;60.60
43541;DHT22;29549;40.386;-3.710;2024-01-10T00:56:34;10.70;60.60
43541;DHT22;29549;40.386;-3.710;2024-01-10T00:56:44;10.70;60.60
43541;DHT22;29549;40.386;-3.710;2024-01-10T00:56:55;10.70;60.60
43541;DHT22;29549;40.386;-3.710;2024-01-10T00:57:06;10.70;60.60
43541;DHT22;29549;40.386;-3.710;2024-01-10T00:57:17;10.70;60.60
43541;DHT22;29549;40.386;-3.710;2024-01-10T00:57:27;10.70;60.60
43541;DHT22;29549;40.386;-3.710;2024-01-10T00:57:38;10.70;60.60
43541;DHT22;29549;40.386;-3.710;2024-01-10T00:57:49;10.70;60.60
43541;DHT22;29549;40.386;-3.710;2024-01-10T00:58:00;10.70;60.60
43541;DHT22;29549;40.386;-3.710;2024-01-10T00:58:11;10.70;60.50
43541;DHT22;29549;40.386;-3.710;2024-01-10T00:58:22;10.70;60.50
43541;DHT22;29549;40.386;-3.710;2024-01-10T00:58:32;10.70;60.50
43541;DHT22;29549;40.386;-3.710;2024-01-10T00:58:43;10.70;60.40
43541;DHT22;29549;40.386;-3.710;2024-01-10T00:58:54;10.70;60.40
43541;DHT22;29549;40.386;-3.710;2024-01-10T00:59:08;10.70;60.40
43541;DHT22;29549;40.386;-3.710;2024-01-10T00:59:19;10.70;60.40
43541;DHT22;29549;40.386;-3.710;2024-01-10T00:59:30;10.70;60.40
43541;DHT22;29549;40.386;-3.710;2024-01-10T00:59:41;10.70;60.40
43541;DHT22;29549;40.386;-3.710;2024-01-10T00:59:51;10.70;60.40
43541;DHT22;29549;40.386;-3.710;2024-01-10T01:00:02;10.70;60.40
43541;DHT22;29549;40.386;-3.710;2024-01-10T01:00:14;10.70;60.40
43541;DHT22;29549;40.386;-3.710;2024-01-10T01:00:25;10.70;60.40
43541;DHT22;29549;40.386;-3.710;2024-01-10T01:00:37;10.70;60.40
43541;DHT22;29549;40.386;-3.710;2024-01-10T01:00:47;10.70;60.40
43541;DHT22;29549;40.386;-3.710;2024-01-10T01:00:58;10.70;60.40
43541;DHT22;29549;40.386;-3.710;2024-01-10T01:01:09;10.70;60.30
43541;DHT22;29549;40.386;-3.710;2024-01-10T01:01:20;10.70;60.30
43541;DHT22;29549;40.386;-3.710;2024-01-10T01:01:31;10.80;60.30
43541;DHT22;29549;40.386;-3.710;2024-01-10T01:01:41;10.70;60.30
43541;DHT22;29549;40.386;-3.710;2024-01-10T01:01:52;10.80;60.30
43541;DHT22;29549;40.386;-3.710;2024-01-10T01:02:03;10.80;60.20
43541;DHT22;29549;40.386;-3.710;2024-01-10T01:02:14;10.70;60.20
43541;DHT22;29549;40.386;-3.710;2024-01-10T01:02:24;10.70;60.20
43541;DHT22;29549;40.386;-3.710;2024-01-10T01:02:35;10.80;60.20
43541;DHT22;29549;40.386;-3.710;2024-01-10T01:02:46;10.80;60.20
43541;DHT22;29549;40.386;-3.710;2024-01-10T01:02:57;10.70;60.20
43541;DHT22;29549;40.386;-3.710;2024-01-10T01:03:08;10.80;60.20
43541;DHT22;29549;40.386;-3.710;2024-01-10T01:03:18;10.70;60.20
43541;DHT22;29549;40.386;-3.710;2024-01-10T01:03:29;10.70;60.20
43541;DHT22;29549;40.386;-3.710;2024-01-10T01:03:40;10.80;60.30
43541;DHT22;29549;40.386;-3.710;2024-01-10T01:03:51;10.80;60.40
43541;DHT22;29549;40.386;-3.710;2024-01-10T01:04:01;10.70;60.50
43541;DHT22;29549;40.386;-3.710;2024-01-10T01:04:12;10.80;60.50
43541;DHT22;29549;40.386;-3.710;2024-01-10T01:04:23;10.70;60.50
43541;DHT22;29549;40.386;-3.710;2024-01-10T01:04:34;10.80;60.40
43541;DHT22;29549;40.386;-3.710;2024-01-10T01:04:45;10.80;60.40
43541;DHT22;29549;40.386;-3.710;2024-01-10T01:04:55;10.80;60.40
43541;DHT22;29549;40.386;-3.710;2024-01-10T01:05:06;10.70;60.30
43541;DHT22;29549;40.386;-3.710;2024-01-10T01:05:17;10.80;60.30
43541;DHT22;29549;40.386;-3.710;2024-01-10T01:05:28;10.80;60.30
43541;DHT22;29549;40.386;-3.710;2024-01-10T01:05:39;10.70;60.30
43541;DHT22;29549;40.386;-3.710;2024-01-10T01:05:50;10.70;60.30
43541;DHT22;29549;40.386;-3.710;2024-01-10T01:06:01;10.70;60.40
43541;DHT22;29549;40.386;-3.710;2024-01-10T01:06:11;10.70;60.40
43541;DHT22;29549;40.386;-3.710;2024-01-10T01:06:22;10.70;60.50
43541;DHT22;29549;40.386;-3.710;2024-01-10T01:06:33;10.80;60.50
43541;DHT22;29549;40.386;-3.710;2024-01-10T01:06:44;10.70;60.50
43541;DHT22;29549;40.386;-3.710;2024-01-10T01:06:54;10.70;60.50
43541;DHT22;29549;40.386;-3.710;2024-01-10T01:07:05;10.70;60.50
43541;DHT22;29549;40.386;-3.710;2024-01-10T01:07:16;10.70;60.40
43541;DHT22;29549;40.386;-3.710;2024-01-10T01:07:27;10.70;60.40
43541;DHT22;29549;40.386;-3.710;2024-01-10T01:07:37;10.80;60.40
43541;DHT22;29549;40.386;-3.710;2024-01-10T01:07:48;10.70;60.40
43541;DHT22;29549;40.386;-3.710;2024-01-10T01:07:59;10.70;60.40